Disclaimer

Please do not use the information listed here in-flight or in-navigation, as they are not provided to us by the airports but are provided by volunteers, so they might be outdated.

Search


Regions


Airport information page

Radio informations:
Tower (TWR) - 118.3 MHz
Approach (APP) - 119.8 MHz

Airport informations:
Latitude: 18° 34' 48.18" N
Longitude: 072° 17' 33.15" W
Elevation: 122 feet - 37 meters
Operating hours: Remarks
Operating agency: Civil government, landing fees and diplomatic clearance may be required
Timezone: UTC-5
Fuel: Jet A1, without icing nhibitor.

100/130 MIL Spec, low lead, aviation gasoline (BLUE)

Runway information:
10/28 - 9974 x 141 feet< - >3040 x 43 meters

Recent METARs:
MTPP 162300Z 06008KT 8000 SCT025 SCT060 29/21 Q1011 A2988
MTPP 170000Z 10010KT 7000 SCT024 SCT060 28/20 Q1012 A2989
MTPP 170100Z 09007KT 7000 SCT024 27/20 Q1013 A2991

Airport on the map: